sensor_id;sensor_type;location;lat;lon;timestamp;temperature;humidity
78212;SHT31;67490;52.086;5.122;2023-03-18T00:02:24;15.02;65.51
78212;SHT31;67490;52.086;5.122;2023-03-18T00:05:09;15.10;65.22
78212;SHT31;67490;52.086;5.122;2023-03-18T00:07:54;15.19;64.92
78212;SHT31;67490;52.086;5.122;2023-03-18T00:10:39;15.11;65.44
78212;SHT31;67490;52.086;5.122;2023-03-18T00:13:25;15.06;65.45
78212;SHT31;67490;52.086;5.122;2023-03-18T00:16:11;15.04;65.48
78212;SHT31;67490;52.086;5.122;2023-03-18T00:18:55;14.96;65.71
78212;SHT31;67490;52.086;5.122;2023-03-18T00:21:40;14.95;65.78
78212;SHT31;67490;52.086;5.122;2023-03-18T00:24:25;14.93;65.71
78212;SHT31;67490;52.086;5.122;2023-03-18T00:27:11;14.92;65.69
78212;SHT31;67490;52.086;5.122;2023-03-18T00:29:57;14.97;65.38
78212;SHT31;67490;52.086;5.122;2023-03-18T00:32:41;14.87;65.81
78212;SHT31;67490;52.086;5.122;2023-03-18T00:35:26;14.90;65.85
78212;SHT31;67490;52.086;5.122;2023-03-18T00:38:11;14.95;65.93
78212;SHT31;67490;52.086;5.122;2023-03-18T00:41:04;14.96;65.58
78212;SHT31;67490;52.086;5.122;2023-03-18T00:43:55;14.87;65.91
78212;SHT31;67490;52.086;5.122;2023-03-18T00:46:41;14.82;66.12
78212;SHT31;67490;52.086;5.122;2023-03-18T00:49:25;14.92;65.66
78212;SHT31;67490;52.086;5.122;2023-03-18T00:52:10;14.92;65.95
78212;SHT31;67490;52.086;5.122;2023-03-18T00:54:54;14.99;65.64
78212;SHT31;67490;52.086;5.122;2023-03-18T00:57:39;14.89;65.94
78212;SHT31;67490;52.086;5.122;2023-03-18T01:00:24;14.97;65.64
78212;SHT31;67490;52.086;5.122;2023-03-18T01:03:11;15.04;65.43
78212;SHT31;67490;52.086;5.122;2023-03-18T01:05:57;15.13;65.30
78212;SHT31;67490;52.086;5.122;2023-03-18T01:08:42;15.10;65.41
78212;SHT31;67490;52.086;5.122;2023-03-18T01:11:27;15.10;65.36
78212;SHT31;67490;52.086;5.122;2023-03-18T01:14:12;15.02;65.54
78212;SHT31;67490;52.086;5.122;2023-03-18T01:16:56;15.02;65.76
78212;SHT31;67490;52.086;5.122;2023-03-18T01:19:42;15.09;65.62
78212;SHT31;67490;52.086;5.122;2023-03-18T01:22:27;15.17;65.26
78212;SHT31;67490;52.086;5.122;2023-03-18T01:25:13;15.14;65.14
78212;SHT31;67490;52.086;5.122;2023-03-18T01:27:59;15.27;64.94
78212;SHT31;67490;52.086;5.122;2023-03-18T01:30:43;15.26;65.00
78212;SHT31;67490;52.086;5.122;2023-03-18T01:33:29;15.23;64.92
78212;SHT31;67490;52.086;5.122;2023-03-18T01:36:15;15.14;65.31
78212;SHT31;67490;52.086;5.122;2023-03-18T01:39:00;15.19;65.30
78212;SHT31;67490;52.086;5.122;2023-03-18T01:41:45;15.11;65.22
78212;SHT31;67490;52.086;5.122;2023-03-18T01:44:33;15.19;65.23
78212;SHT31;67490;52.086;5.122;2023-03-18T01:47:17;15.11;65.37
78212;SHT31;67490;52.086;5.122;2023-03-18T01:50:02;15.13;65.50
78212;SHT31;67490;52.086;5.122;2023-03-18T01:52:53;15.19;65.29
78212;SHT31;67490;52.086;5.122;2023-03-18T01:55:40;15.09;65.60
78212;SHT31;67490;52.086;5.122;2023-03-18T01:58:30;15.09;65.66
78212;SHT31;67490;52.086;5.122;2023-03-18T02:01:20;15.07;65.53
78212;SHT31;67490;52.086;5.122;2023-03-18T02:04:08;15.03;65.93
78212;SHT31;67490;52.086;5.122;2023-03-18T02:06:53;15.06;65.80
78212;SHT31;67490;52.086;5.122;2023-03-18T02:09:39;15.00;65.82
78212;SHT31;67490;52.086;5.122;2023-03-18T02:12:28;14.97;66.15
78212;SHT31;67490;52.086;5.122;2023-03-18T02:15:16;14.97;66.11
78212;SHT31;67490;52.086;5.122;2023-03-18T02:18:08;15.02;65.91
78212;SHT31;67490;52.086;5.122;2023-03-18T02:24:11;15.02;65.93
78212;SHT31;67490;52.086;5.122;2023-03-18T02:27:02;14.99;66.00
78212;SHT31;67490;52.086;5.122;2023-03-18T02:29:53;14.85;66.36
78212;SHT31;67490;52.086;5.122;2023-03-18T02:32:42;14.87;66.69
78212;SHT31;67490;52.086;5.122;2023-03-18T02:35:29;14.97;66.05
78212;SHT31;67490;52.086;5.122;2023-03-18T02:38:15;14.97;66.05
78212;SHT31;67490;52.086;5.122;2023-03-18T02:40:59;14.89;66.27
78212;SHT31;67490;52.086;5.122;2023-03-18T02:43:45;14.89;66.42
78212;SHT31;67490;52.086;5.122;2023-03-18T02:46:37;14.92;66.28
78212;SHT31;67490;52.086;5.122;2023-03-18T02:49:27;14.93;66.09
78212;SHT31;67490;52.086;5.122;2023-03-18T02:52:12;14.72;66.86
78212;SHT31;67490;52.086;5.122;2023-03-18T02:54:56;14.68;66.92
78212;SHT31;67490;52.086;5.122;2023-03-18T02:57:42;14.78;66.68
78212;SHT31;67490;52.086;5.122;2023-03-18T03:00:27;14.76;66.52
78212;SHT31;67490;52.086;5.122;2023-03-18T03:03:12;14.72;66.78
78212;SHT31;67490;52.086;5.122;2023-03-18T03:05:57;14.66;66.79
78212;SHT31;67490;52.086;5.122;2023-03-18T03:08:42;14.69;66.65
78212;SHT31;67490;52.086;5.122;2023-03-18T03:11:28;14.69;66.58
78212;SHT31;67490;52.086;5.122;2023-03-18T03:14:13;14.68;66.46
78212;SHT31;67490;52.086;5.122;2023-03-18T03:17:02;14.71;66.36
78212;SHT31;67490;52.086;5.122;2023-03-18T03:19:49;14.66;66.76
78212;SHT31;67490;52.086;5.122;2023-03-18T03:22:35;14.61;66.81
78212;SHT31;67490;52.086;5.122;2023-03-18T03:25:20;14.59;66.61
78212;SHT31;67490;52.086;5.122;2023-03-18T03:28:06;14.49;66.85
78212;SHT31;67490;52.086;5.122;2023-03-18T03:30:55;14.51;67.08
78212;SHT31;67490;52.086;5.122;2023-03-18T03:33:40;14.44;66.89
78212;SHT31;67490;52.086;5.122;2023-03-18T03:36:28;14.45;67.29
78212;SHT31;67490;52.086;5.122;2023-03-18T03:39:12;14.42;67.63
78212;SHT31;67490;52.086;5.122;2023-03-18T03:41:56;14.38;68.31
78212;SHT31;67490;52.086;5.122;2023-03-18T03:44:41;14.32;68.46
78212;SHT31;67490;52.086;5.122;2023-03-18T03:47:26;14.42;68.29
78212;SHT31;67490;52.086;5.122;2023-03-18T03:50:11;14.45;67.97
78212;SHT31;67490;52.086;5.122;2023-03-18T03:52:56;14.54;67.93
78212;SHT31;67490;52.086;5.122;2023-03-18T03:55:41;14.52;68.09
78212;SHT31;67490;52.086;5.122;2023-03-18T03:58:26;14.64;67.52
78212;SHT31;67490;52.086;5.122;2023-03-18T04:01:10;14.61;67.62
78212;SHT31;67490;52.086;5.122;2023-03-18T04:03:55;14.55;67.77
78212;SHT31;67490;52.086;5.122;2023-03-18T04:06:39;14.61;67.40
78212;SHT31;67490;52.086;5.122;2023-03-18T04:09:25;14.64;67.59
78212;SHT31;67490;52.086;5.122;2023-03-18T04:12:10;14.68;67.53
78212;SHT31;67490;52.086;5.122;2023-03-18T04:14:55;14.72;67.45
78212;SHT31;67490;52.086;5.122;2023-03-18T04:17:40;14.72;67.36
78212;SHT31;67490;52.086;5.122;2023-03-18T04:20:24;14.51;67.71
78212;SHT31;67490;52.086;5.122;2023-03-18T04:23:09;14.46;68.24
78212;SHT31;67490;52.086;5.122;2023-03-18T04:25:56;14.55;68.29
78212;SHT31;67490;52.086;5.122;2023-03-18T04:28:40;14.46;69.05
78212;SHT31;67490;52.086;5.122;2023-03-18T04:31:25;14.45;69.26
78212;SHT31;67490;52.086;5.122;2023-03-18T04:34:10;14.51;68.99
78212;SHT31;67490;52.086;5.122;2023-03-18T04:36:54;14.41;69.45
78212;SHT31;67490;52.086;5.122;2023-03-18T04:39:39;14.31;70.18
78212;SHT31;67490;52.086;5.122;2023-03-18T04:42:25;14.21;70.40
78212;SHT31;67490;52.086;5.122;2023-03-18T04:45:10;14.27;70.64
78212;SHT31;67490;52.086;5.122;2023-03-18T04:47:54;14.29;70.67
78212;SHT31;67490;52.086;5.122;2023-03-18T04:50:39;14.24;71.02
78212;SHT31;67490;52.086;5.122;2023-03-18T04:53:24;14.10;71.99
78212;SHT31;67490;52.086;5.122;2023-03-18T04:56:08;14.08;72.26
78212;SHT31;67490;52.086;5.122;2023-03-18T04:58:54;14.17;72.24
78212;SHT31;67490;52.086;5.122;2023-03-18T05:01:39;14.00;72.42
78212;SHT31;67490;52.086;5.122;2023-03-18T05:04:24;13.94;72.81
78212;SHT31;67490;52.086;5.122;2023-03-18T05:07:11;13.90;72.79
78212;SHT31;67490;52.086;5.122;2023-03-18T05:09:57;13.94;72.86
78212;SHT31;67490;52.086;5.122;2023-03-18T05:12:41;14.00;72.76
78212;SHT31;67490;52.086;5.122;2023-03-18T05:15:28;14.03;72.43
78212;SHT31;67490;52.086;5.122;2023-03-18T05:18:12;13.93;72.80
78212;SHT31;67490;52.086;5.122;2023-03-18T05:20:57;13.83;73.08
78212;SHT31;67490;52.086;5.122;2023-03-18T05:23:43;13.83;73.25
78212;SHT31;67490;52.086;5.122;2023-03-18T05:26:27;13.84;73.38
78212;SHT31;67490;52.086;5.122;2023-03-18T05:29:13;13.81;73.39
78212;SHT31;67490;52.086;5.122;2023-03-18T05:31:59;13.80;73.31
78212;SHT31;67490;52.086;5.122;2023-03-18T05:34:43;13.93;73.25
78212;SHT31;67490;52.086;5.122;2023-03-18T05:37:28;14.06;72.92
78212;SHT31;67490;52.086;5.122;2023-03-18T05:40:13;14.08;72.91
78212;SHT31;67490;52.086;5.122;2023-03-18T05:42:58;13.89;73.60
78212;SHT31;67490;52.086;5.122;2023-03-18T05:45:42;13.81;73.81
78212;SHT31;67490;52.086;5.122;2023-03-18T05:48:28;13.69;74.45
78212;SHT31;67490;52.086;5.122;2023-03-18T05:51:12;13.80;74.35
78212;SHT31;67490;52.086;5.122;2023-03-18T05:53:57;13.74;74.16
78212;SHT31;67490;52.086;5.122;2023-03-18T05:56:42;13.65;74.62
78212;SHT31;67490;52.086;5.122;2023-03-18T05:59:28;13.62;74.71
78212;SHT31;67490;52.086;5.122;2023-03-18T06:02:13;13.77;74.42
78212;SHT31;67490;52.086;5.122;2023-03-18T06:04:59;13.90;73.93
78212;SHT31;67490;52.086;5.122;2023-03-18T06:07:44;13.93;73.86
78212;SHT31;67490;52.086;5.122;2023-03-18T06:10:30;13.90;73.95
78212;SHT31;67490;52.086;5.122;2023-03-18T06:13:15;13.98;73.61
78212;SHT31;67490;52.086;5.122;2023-03-18T06:15:59;14.08;73.18
78212;SHT31;67490;52.086;5.122;2023-03-18T06:18:45;14.06;73.21
78212;SHT31;67490;52.086;5.122;2023-03-18T06:21:31;14.03;73.25
78212;SHT31;67490;52.086;5.122;2023-03-18T06:24:16;14.07;73.25
78212;SHT31;67490;52.086;5.122;2023-03-18T06:27:02;14.00;73.73
78212;SHT31;67490;52.086;5.122;2023-03-18T06:29:47;14.06;73.35
78212;SHT31;67490;52.086;5.122;2023-03-18T06:32:32;14.07;73.48
78212;SHT31;67490;52.086;5.122;2023-03-18T06:35:16;14.20;73.16
78212;SHT31;67490;52.086;5.122;2023-03-18T06:38:03;14.25;73.01
78212;SHT31;67490;52.086;5.122;2023-03-18T06:40:48;14.34;72.91
78212;SHT31;67490;52.086;5.122;2023-03-18T06:43:32;14.44;72.61
78212;SHT31;67490;52.086;5.122;2023-03-18T06:46:17;14.57;72.14
78212;SHT31;67490;52.086;5.122;2023-03-18T06:49:02;14.61;71.96
78212;SHT31;67490;52.086;5.122;2023-03-18T06:51:46;14.48;72.23
78212;SHT31;67490;52.086;5.122;2023-03-18T06:54:33;14.45;72.31
78212;SHT31;67490;52.086;5.122;2023-03-18T06:57:17;14.51;72.03
78212;SHT31;67490;52.086;5.122;2023-03-18T07:00:04;14.54;71.98
78212;SHT31;67490;52.086;5.122;2023-03-18T07:02:49;14.49;72.11
78212;SHT31;67490;52.086;5.122;2023-03-18T07:05:33;14.61;72.46
78212;SHT31;67490;52.086;5.122;2023-03-18T07:08:18;14.45;73.34
78212;SHT31;67490;52.086;5.122;2023-03-18T07:11:04;14.34;73.08
78212;SHT31;67490;52.086;5.122;2023-03-18T07:13:51;14.42;73.00
78212;SHT31;67490;52.086;5.122;2023-03-18T07:16:36;14.45;72.22
78212;SHT31;67490;52.086;5.122;2023-03-18T07:19:20;14.32;72.80
78212;SHT31;67490;52.086;5.122;2023-03-18T07:22:05;14.49;72.66
78212;SHT31;67490;52.086;5.122;2023-03-18T07:24:50;14.49;72.78
78212;SHT31;67490;52.086;5.122;2023-03-18T07:27:36;14.51;72.46
78212;SHT31;67490;52.086;5.122;2023-03-18T07:30:21;14.65;71.88
78212;SHT31;67490;52.086;5.122;2023-03-18T07:33:06;14.55;73.06
78212;SHT31;67490;52.086;5.122;2023-03-18T07:35:50;14.46;72.79
78212;SHT31;67490;52.086;5.122;2023-03-18T07:38:35;14.55;72.52
78212;SHT31;67490;52.086;5.122;2023-03-18T07:41:23;14.62;72.16
78212;SHT31;67490;52.086;5.122;2023-03-18T07:44:10;14.78;71.56
78212;SHT31;67490;52.086;5.122;2023-03-18T07:46:54;14.85;71.65
78212;SHT31;67490;52.086;5.122;2023-03-18T07:49:39;14.89;71.18
78212;SHT31;67490;52.086;5.122;2023-03-18T07:52:24;14.79;71.68
78212;SHT31;67490;52.086;5.122;2023-03-18T07:55:10;14.82;71.40
78212;SHT31;67490;52.086;5.122;2023-03-18T07:57:55;14.78;71.66
78212;SHT31;67490;52.086;5.122;2023-03-18T08:00:41;14.87;71.32
78212;SHT31;67490;52.086;5.122;2023-03-18T08:03:27;14.76;71.52
78212;SHT31;67490;52.086;5.122;2023-03-18T08:06:12;14.78;71.63
78212;SHT31;67490;52.086;5.122;2023-03-18T08:08:58;14.85;71.08
78212;SHT31;67490;52.086;5.122;2023-03-18T08:11:43;14.93;71.04
78212;SHT31;67490;52.086;5.122;2023-03-18T08:14:27;15.09;71.38
78212;SHT31;67490;52.086;5.122;2023-03-18T08:17:13;15.00;70.96
78212;SHT31;67490;52.086;5.122;2023-03-18T08:19:57;15.10;70.63
78212;SHT31;67490;52.086;5.122;2023-03-18T08:22:42;15.38;70.15
78212;SHT31;67490;52.086;5.122;2023-03-18T08:25:29;15.61;69.36
78212;SHT31;67490;52.086;5.122;2023-03-18T08:28:13;15.69;68.83
78212;SHT31;67490;52.086;5.122;2023-03-18T08:30:58;15.68;68.34
78212;SHT31;67490;52.086;5.122;2023-03-18T08:33:44;15.67;68.22
78212;SHT31;67490;52.086;5.122;2023-03-18T08:36:30;15.67;68.02
78212;SHT31;67490;52.086;5.122;2023-03-18T08:39:15;15.68;68.27
78212;SHT31;67490;52.086;5.122;2023-03-18T08:42:02;15.62;68.38
78212;SHT31;67490;52.086;5.122;2023-03-18T08:44:48;15.55;68.80
78212;SHT31;67490;52.086;5.122;2023-03-18T08:47:33;15.46;68.82
78212;SHT31;67490;52.086;5.122;2023-03-18T08:50:18;15.53;68.95
78212;SHT31;67490;52.086;5.122;2023-03-18T08:53:03;15.44;69.24
78212;SHT31;67490;52.086;5.122;2023-03-18T08:55:48;15.46;69.05
78212;SHT31;67490;52.086;5.122;2023-03-18T08:58:34;15.47;70.25
78212;SHT31;67490;52.086;5.122;2023-03-18T09:01:19;15.51;69.00
78212;SHT31;67490;52.086;5.122;2023-03-18T09:04:06;15.64;68.37
78212;SHT31;67490;52.086;5.122;2023-03-18T09:06:53;15.62;68.97
78212;SHT31;67490;52.086;5.122;2023-03-18T09:09:38;15.65;68.53
78212;SHT31;67490;52.086;5.122;2023-03-18T09:12:22;15.78;68.22
78212;SHT31;67490;52.086;5.122;2023-03-18T09:15:08;15.75;68.16
78212;SHT31;67490;52.086;5.122;2023-03-18T09:17:53;15.92;67.79
78212;SHT31;67490;52.086;5.122;2023-03-18T09:20:38;15.81;68.25
78212;SHT31;67490;52.086;5.122;2023-03-18T09:23:24;15.96;67.53
78212;SHT31;67490;52.086;5.122;2023-03-18T09:26:10;15.98;67.53
78212;SHT31;67490;52.086;5.122;2023-03-18T09:28:55;15.78;68.41
78212;SHT31;67490;52.086;5.122;2023-03-18T09:31:40;16.02;67.65
78212;SHT31;67490;52.086;5.122;2023-03-18T09:34:25;16.17;66.85
78212;SHT31;67490;52.086;5.122;2023-03-18T09:37:10;15.96;67.40
78212;SHT31;67490;52.086;5.122;2023-03-18T09:39:58;15.65;68.78
78212;SHT31;67490;52.086;5.122;2023-03-18T09:42:56;15.65;68.85
78212;SHT31;67490;52.086;5.122;2023-03-18T09:45:53;15.81;68.60
78212;SHT31;67490;52.086;5.122;2023-03-18T09:48:52;15.78;68.11
78212;SHT31;67490;52.086;5.122;2023-03-18T09:51:54;15.72;68.70
78212;SHT31;67490;52.086;5.122;2023-03-18T09:54:42;15.72;68.34
78212;SHT31;67490;52.086;5.122;2023-03-18T09:57:33;15.94;68.00
78212;SHT31;67490;52.086;5.122;2023-03-18T10:00:22;16.19;67.56
78212;SHT31;67490;52.086;5.122;2023-03-18T10:03:16;16.34;66.23
78212;SHT31;67490;52.086;5.122;2023-03-18T10:06:07;16.36;65.94
78212;SHT31;67490;52.086;5.122;2023-03-18T10:09:07;16.33;67.68
78212;SHT31;67490;52.086;5.122;2023-03-18T10:12:00;16.46;65.84
78212;SHT31;67490;52.086;5.122;2023-03-18T10:15:02;16.47;65.80
78212;SHT31;67490;52.086;5.122;2023-03-18T10:17:54;16.61;65.68
78212;SHT31;67490;52.086;5.122;2023-03-18T10:20:54;16.64;65.16
78212;SHT31;67490;52.086;5.122;2023-03-18T10:23:48;16.77;65.26
78212;SHT31;67490;52.086;5.122;2023-03-18T10:26:41;17.07;63.66
78212;SHT31;67490;52.086;5.122;2023-03-18T10:29:39;17.29;63.55
78212;SHT31;67490;52.086;5.122;2023-03-18T10:32:34;17.21;63.43
78212;SHT31;67490;52.086;5.122;2023-03-18T10:35:30;17.07;63.36
78212;SHT31;67490;52.086;5.122;2023-03-18T10:38:22;17.22;62.58
78212;SHT31;67490;52.086;5.122;2023-03-18T10:41:15;17.11;62.80
78212;SHT31;67490;52.086;5.122;2023-03-18T10:44:02;17.52;62.14
78212;SHT31;67490;52.086;5.122;2023-03-18T10:46:54;17.66;61.09
78212;SHT31;67490;52.086;5.122;2023-03-18T10:49:53;17.35;62.71
78212;SHT31;67490;52.086;5.122;2023-03-18T10:52:47;17.38;62.34
78212;SHT31;67490;52.086;5.122;2023-03-18T10:55:43;17.46;62.31
78212;SHT31;67490;52.086;5.122;2023-03-18T10:58:32;17.56;62.48
78212;SHT31;67490;52.086;5.122;2023-03-18T11:01:20;17.59;61.97
78212;SHT31;67490;52.086;5.122;2023-03-18T11:04:14;17.83;61.15
78212;SHT31;67490;52.086;5.122;2023-03-18T11:07:04;17.86;61.77
78212;SHT31;67490;52.086;5.122;2023-03-18T11:09:51;17.84;61.23
78212;SHT31;67490;52.086;5.122;2023-03-18T11:12:35;17.54;61.78
78212;SHT31;67490;52.086;5.122;2023-03-18T11:15:20;17.63;61.81
78212;SHT31;67490;52.086;5.122;2023-03-18T11:18:04;17.67;61.65
78212;SHT31;67490;52.086;5.122;2023-03-18T11:20:53;17.74;61.47
78212;SHT31;67490;52.086;5.122;2023-03-18T11:23:55;17.57;61.44
78212;SHT31;67490;52.086;5.122;2023-03-18T11:26:54;17.77;61.20
78212;SHT31;67490;52.086;5.122;2023-03-18T11:29:42;17.61;61.89
78212;SHT31;67490;52.086;5.122;2023-03-18T11:32:31;17.50;60.14
78212;SHT31;67490;52.086;5.122;2023-03-18T11:35:20;17.38;60.87
78212;SHT31;67490;52.086;5.122;2023-03-18T11:38:13;17.28;60.79
78212;SHT31;67490;52.086;5.122;2023-03-18T11:41:07;17.43;60.55
78212;SHT31;67490;52.086;5.122;2023-03-18T11:43:57;17.46;61.05
78212;SHT31;67490;52.086;5.122;2023-03-18T11:46:49;17.47;61.27
78212;SHT31;67490;52.086;5.122;2023-03-18T11:49:37;17.36;61.23
78212;SHT31;67490;52.086;5.122;2023-03-18T11:52:32;17.46;61.30
78212;SHT31;67490;52.086;5.122;2023-03-18T11:55:29;17.59;60.30
78212;SHT31;67490;52.086;5.122;2023-03-18T12:01:48;17.79;58.93
78212;SHT31;67490;52.086;5.122;2023-03-18T12:04:48;17.87;59.42
78212;SHT31;67490;52.086;5.122;2023-03-18T12:07:59;17.70;59.28
78212;SHT31;67490;52.086;5.122;2023-03-18T12:10:53;17.90;58.80
78212;SHT31;67490;52.086;5.122;2023-03-18T12:13:53;17.97;58.91
78212;SHT31;67490;52.086;5.122;2023-03-18T12:16:55;17.96;59.19
78212;SHT31;67490;52.086;5.122;2023-03-18T12:20:07;17.77;58.76
78212;SHT31;67490;52.086;5.122;2023-03-18T12:23:03;17.73;59.38
78212;SHT31;67490;52.086;5.122;2023-03-18T12:25:58;17.52;60.19
78212;SHT31;67490;52.086;5.122;2023-03-18T12:29:12;17.39;59.81
78212;SHT31;67490;52.086;5.122;2023-03-18T12:32:16;17.33;59.40
78212;SHT31;67490;52.086;5.122;2023-03-18T12:35:20;17.36;59.38
78212;SHT31;67490;52.086;5.122;2023-03-18T12:38:25;17.18;60.07
78212;SHT31;67490;52.086;5.122;2023-03-18T12:41:18;17.10;60.70
78212;SHT31;67490;52.086;5.122;2023-03-18T12:44:21;17.25;59.61
78212;SHT31;67490;52.086;5.122;2023-03-18T12:47:17;17.24;59.49
78212;SHT31;67490;52.086;5.122;2023-03-18T12:50:11;17.40;59.62
78212;SHT31;67490;52.086;5.122;2023-03-18T12:53:00;17.38;59.68
78212;SHT31;67490;52.086;5.122;2023-03-18T12:55:49;17.26;60.68
78212;SHT31;67490;52.086;5.122;2023-03-18T12:58:42;17.12;60.64
78212;SHT31;67490;52.086;5.122;2023-03-18T13:01:35;17.35;60.34
78212;SHT31;67490;52.086;5.122;2023-03-18T13:04:30;17.50;61.20
78212;SHT31;67490;52.086;5.122;2023-03-18T13:07:23;17.40;59.34
78212;SHT31;67490;52.086;5.122;2023-03-18T13:10:19;17.35;59.87
78212;SHT31;67490;52.086;5.122;2023-03-18T13:13:08;17.56;59.70
78212;SHT31;67490;52.086;5.122;2023-03-18T13:15:54;17.69;58.51
78212;SHT31;67490;52.086;5.122;2023-03-18T13:18:44;17.66;59.02
78212;SHT31;67490;52.086;5.122;2023-03-18T13:21:39;17.89;58.68
78212;SHT31;67490;52.086;5.122;2023-03-18T13:24:48;17.97;58.11
78212;SHT31;67490;52.086;5.122;2023-03-18T13:27:58;18.01;58.02
78212;SHT31;67490;52.086;5.122;2023-03-18T13:30:58;17.98;58.34
78212;SHT31;67490;52.086;5.122;2023-03-18T13:34:22;17.89;58.15
78212;SHT31;67490;52.086;5.122;2023-03-18T13:37:26;18.05;58.03
78212;SHT31;67490;52.086;5.122;2023-03-18T13:40:30;18.03;57.72
78212;SHT31;67490;52.086;5.122;2023-03-18T13:43:20;17.97;58.35
78212;SHT31;67490;52.086;5.122;2023-03-18T13:46:18;18.05;58.33
78212;SHT31;67490;52.086;5.122;2023-03-18T13:49:03;18.07;58.42
78212;SHT31;67490;52.086;5.122;2023-03-18T13:51:52;18.05;59.16
78212;SHT31;67490;52.086;5.122;2023-03-18T13:54:41;18.04;58.99
78212;SHT31;67490;52.086;5.122;2023-03-18T13:57:41;18.13;58.70
78212;SHT31;67490;52.086;5.122;2023-03-18T14:00:32;18.03;59.32
78212;SHT31;67490;52.086;5.122;2023-03-18T14:03:19;18.11;59.71
78212;SHT31;67490;52.086;5.122;2023-03-18T14:06:21;18.07;59.00
78212;SHT31;67490;52.086;5.122;2023-03-18T14:12:17;18.15;58.21
78212;SHT31;67490;52.086;5.122;2023-03-18T14:15:19;18.13;58.31
78212;SHT31;67490;52.086;5.122;2023-03-18T14:18:20;18.13;58.44
78212;SHT31;67490;52.086;5.122;2023-03-18T14:21:22;18.10;58.33
78212;SHT31;67490;52.086;5.122;2023-03-18T14:24:11;17.97;58.67
78212;SHT31;67490;52.086;5.122;2023-03-18T14:27:17;18.01;58.85
78212;SHT31;67490;52.086;5.122;2023-03-18T14:33:43;18.00;58.64
78212;SHT31;67490;52.086;5.122;2023-03-18T14:37:14;17.76;60.02
78212;SHT31;67490;52.086;5.122;2023-03-18T14:40:05;17.82;59.37
78212;SHT31;67490;52.086;5.122;2023-03-18T14:42:58;17.86;58.13
78212;SHT31;67490;52.086;5.122;2023-03-18T14:45:44;17.93;58.52
78212;SHT31;67490;52.086;5.122;2023-03-18T14:48:34;17.89;57.91
78212;SHT31;67490;52.086;5.122;2023-03-18T14:51:20;17.65;56.48
78212;SHT31;67490;52.086;5.122;2023-03-18T14:54:13;17.66;56.48
78212;SHT31;67490;52.086;5.122;2023-03-18T14:57:02;17.53;56.98
78212;SHT31;67490;52.086;5.122;2023-03-18T14:59:51;17.45;57.64
78212;SHT31;67490;52.086;5.122;2023-03-18T15:02:37;17.46;57.56
78212;SHT31;67490;52.086;5.122;2023-03-18T15:05:24;17.43;58.22
78212;SHT31;67490;52.086;5.122;2023-03-18T15:08:12;17.50;58.64
78212;SHT31;67490;52.086;5.122;2023-03-18T15:11:01;17.46;59.13
78212;SHT31;67490;52.086;5.122;2023-03-18T15:13:53;17.54;59.58
78212;SHT31;67490;52.086;5.122;2023-03-18T15:16:39;17.54;59.16
78212;SHT31;67490;52.086;5.122;2023-03-18T15:19:24;17.46;59.19
78212;SHT31;67490;52.086;5.122;2023-03-18T15:22:19;17.38;59.20
78212;SHT31;67490;52.086;5.122;2023-03-18T15:25:16;17.35;60.24
78212;SHT31;67490;52.086;5.122;2023-03-18T15:28:01;17.40;60.30
78212;SHT31;67490;52.086;5.122;2023-03-18T15:30:51;17.47;60.14
78212;SHT31;67490;52.086;5.122;2023-03-18T15:33:38;17.43;59.30
78212;SHT31;67490;52.086;5.122;2023-03-18T15:36:24;17.56;58.57
78212;SHT31;67490;52.086;5.122;2023-03-18T15:39:18;17.59;58.08
78212;SHT31;67490;52.086;5.122;2023-03-18T15:42:14;17.42;58.39
78212;SHT31;67490;52.086;5.122;2023-03-18T15:45:03;17.21;58.50
78212;SHT31;67490;52.086;5.122;2023-03-18T15:47:48;17.32;58.79
78212;SHT31;67490;52.086;5.122;2023-03-18T15:50:35;17.43;58.09
78212;SHT31;67490;52.086;5.122;2023-03-18T15:53:22;17.28;58.40
78212;SHT31;67490;52.086;5.122;2023-03-18T15:56:16;17.39;58.38
78212;SHT31;67490;52.086;5.122;2023-03-18T15:59:05;17.38;57.94
78212;SHT31;67490;52.086;5.122;2023-03-18T16:01:53;17.33;57.98
78212;SHT31;67490;52.086;5.122;2023-03-18T16:04:37;17.47;57.96
78212;SHT31;67490;52.086;5.122;2023-03-18T16:07:23;17.40;58.19
78212;SHT31;67490;52.086;5.122;2023-03-18T16:10:12;17.42;58.49
78212;SHT31;67490;52.086;5.122;2023-03-18T16:13:02;17.46;58.50
78212;SHT31;67490;52.086;5.122;2023-03-18T16:15:47;17.43;58.92
78212;SHT31;67490;52.086;5.122;2023-03-18T16:18:31;17.40;58.77
78212;SHT31;67490;52.086;5.122;2023-03-18T16:21:16;17.49;58.19
78212;SHT31;67490;52.086;5.122;2023-03-18T16:24:02;17.40;58.34
78212;SHT31;67490;52.086;5.122;2023-03-18T16:26:46;17.39;58.36
78212;SHT31;67490;52.086;5.122;2023-03-18T16:29:33;17.42;58.49
78212;SHT31;67490;52.086;5.122;2023-03-18T16:32:20;17.39;57.91
78212;SHT31;67490;52.086;5.122;2023-03-18T16:35:05;17.29;57.76
78212;SHT31;67490;52.086;5.122;2023-03-18T16:37:50;17.28;58.13
78212;SHT31;67490;52.086;5.122;2023-03-18T16:40:36;17.31;57.94
78212;SHT31;67490;52.086;5.122;2023-03-18T16:43:22;17.43;57.59
78212;SHT31;67490;52.086;5.122;2023-03-18T16:46:12;17.35;58.35
78212;SHT31;67490;52.086;5.122;2023-03-18T16:48:57;17.36;58.31
78212;SHT31;67490;52.086;5.122;2023-03-18T16:51:41;17.35;58.23
78212;SHT31;67490;52.086;5.122;2023-03-18T16:54:29;17.39;58.33
78212;SHT31;67490;52.086;5.122;2023-03-18T16:57:18;17.31;58.54
78212;SHT31;67490;52.086;5.122;2023-03-18T17:00:11;17.36;58.69
78212;SHT31;67490;52.086;5.122;2023-03-18T17:03:02;17.24;58.63
78212;SHT31;67490;52.086;5.122;2023-03-18T17:05:48;17.42;58.10
78212;SHT31;67490;52.086;5.122;2023-03-18T17:08:35;17.31;58.62
78212;SHT31;67490;52.086;5.122;2023-03-18T17:11:21;17.26;58.32
78212;SHT31;67490;52.086;5.122;2023-03-18T17:14:26;17.31;58.18
78212;SHT31;67490;52.086;5.122;2023-03-18T17:17:19;17.33;58.23
78212;SHT31;67490;52.086;5.122;2023-03-18T17:20:14;17.18;58.19
78212;SHT31;67490;52.086;5.122;2023-03-18T17:22:59;17.16;58.56
78212;SHT31;67490;52.086;5.122;2023-03-18T17:25:48;17.15;58.53
78212;SHT31;67490;52.086;5.122;2023-03-18T17:28:36;17.21;58.21
78212;SHT31;67490;52.086;5.122;2023-03-18T17:31:23;17.15;58.13
78212;SHT31;67490;52.086;5.122;2023-03-18T17:34:12;17.10;58.75
78212;SHT31;67490;52.086;5.122;2023-03-18T17:36:57;17.16;58.41
78212;SHT31;67490;52.086;5.122;2023-03-18T17:39:41;17.11;58.75
78212;SHT31;67490;52.086;5.122;2023-03-18T17:42:28;17.14;58.76
78212;SHT31;67490;52.086;5.122;2023-03-18T17:45:24;17.15;58.61
78212;SHT31;67490;52.086;5.122;2023-03-18T17:48:16;17.11;58.75
78212;SHT31;67490;52.086;5.122;2023-03-18T17:51:05;17.07;58.33
78212;SHT31;67490;52.086;5.122;2023-03-18T17:53:54;17.10;58.47
78212;SHT31;67490;52.086;5.122;2023-03-18T17:56:39;17.18;58.03
78212;SHT31;67490;52.086;5.122;2023-03-18T17:59:24;17.04;58.66